createdAt,value
2022-08-19T00:01:45.038Z,19.13
2022-08-19T00:04:57.892Z,19.06
2022-08-19T00:08:02.894Z,18.99
2022-08-19T00:11:07.890Z,18.93
2022-08-19T00:14:16.922Z,18.89
2022-08-19T00:17:28.074Z,18.92
2022-08-19T00:20:34.062Z,18.97
2022-08-19T00:23:38.909Z,18.99
2022-08-19T00:26:50.951Z,18.97
2022-08-19T00:30:04.945Z,18.99
2022-08-19T00:33:15.954Z,19.03
2022-08-19T00:36:23.954Z,19.09
2022-08-19T00:39:33.981Z,19.15
2022-08-19T00:42:39.877Z,19.16
2022-08-19T00:45:48.909Z,19.08
2022-08-19T00:49:00.314Z,19.02
2022-08-19T00:52:12.934Z,18.97
2022-08-19T00:55:18.923Z,18.92
2022-08-19T00:58:26.312Z,18.86
2022-08-19T01:01:36.328Z,18.78
2022-08-19T01:04:44.873Z,18.69
2022-08-19T01:07:56.666Z,18.62
2022-08-19T01:11:10.951Z,18.58
2022-08-19T01:14:22.857Z,18.59
2022-08-19T01:17:33.922Z,18.64
2022-08-19T01:20:49.306Z,18.64
2022-08-19T01:23:53.907Z,18.64
2022-08-19T01:26:59.857Z,18.66
2022-08-19T01:30:07.109Z,18.68
2022-08-19T01:33:00.163Z,18.68
2022-08-19T01:35:39.395Z,18.69
2022-08-19T01:38:09.589Z,18.69
2022-08-19T01:40:40.670Z,18.68
2022-08-19T01:43:07.271Z,18.66
2022-08-19T01:45:35.476Z,18.64
2022-08-19T01:48:03.102Z,18.61
2022-08-19T01:50:33.146Z,18.59
2022-08-19T01:53:05.995Z,18.58
2022-08-19T01:55:36.188Z,18.56
2022-08-19T01:58:15.829Z,18.53
2022-08-19T02:00:43.551Z,18.50
2022-08-19T02:03:11.410Z,18.46
2022-08-19T02:05:39.215Z,18.43
2022-08-19T02:08:05.894Z,18.40
2022-08-19T02:10:32.634Z,18.34
2022-08-19T02:12:59.491Z,18.31
2022-08-19T02:15:27.134Z,18.30
2022-08-19T02:17:54.202Z,18.34
2022-08-19T02:20:20.918Z,18.32
2022-08-19T02:22:47.442Z,18.27
2022-08-19T02:25:14.926Z,18.24
2022-08-19T02:27:43.163Z,18.21
2022-08-19T02:30:14.568Z,18.15
2022-08-19T02:32:54.271Z,18.09
2022-08-19T02:35:21.023Z,18.05
2022-08-19T02:37:59.422Z,18.02
2022-08-19T02:40:27.125Z,17.98
2022-08-19T02:42:53.993Z,17.94
2022-08-19T02:45:20.814Z,17.91
2022-08-19T02:47:47.620Z,17.88
2022-08-19T02:50:14.853Z,17.85
2022-08-19T02:53:07.947Z,17.83
2022-08-19T02:56:15.935Z,17.83
2022-08-19T03:02:27.963Z,17.85
2022-08-19T03:05:48.068Z,17.85
2022-08-19T03:09:10.944Z,17.87
2022-08-19T03:12:23.847Z,17.91
2022-08-19T03:15:33.925Z,17.94
2022-08-19T03:18:54.699Z,17.91
2022-08-19T03:21:56.892Z,17.89
2022-08-19T03:25:03.961Z,17.93
2022-08-19T03:28:22.943Z,17.96
2022-08-19T03:31:43.518Z,17.95
2022-08-19T03:34:15.132Z,17.93
2022-08-19T03:36:55.388Z,17.90
2022-08-19T03:39:36.237Z,17.86
2022-08-19T03:42:32.110Z,17.83
2022-08-19T03:45:26.265Z,17.73
2022-08-19T03:48:04.292Z,17.65
2022-08-19T03:50:44.428Z,17.60
2022-08-19T03:53:34.726Z,17.56
2022-08-19T03:56:15.792Z,17.52
2022-08-19T03:58:55.431Z,17.48
2022-08-19T04:01:50.205Z,17.46
2022-08-19T04:04:34.490Z,17.49
2022-08-19T04:07:24.157Z,17.53
2022-08-19T04:09:58.657Z,17.59
2022-08-19T04:12:37.975Z,17.64
2022-08-19T04:15:11.234Z,17.70
2022-08-19T04:17:41.055Z,17.75
2022-08-19T04:20:15.169Z,17.78
2022-08-19T04:22:45.470Z,17.82
2022-08-19T04:25:18.436Z,17.86
2022-08-19T04:27:57.030Z,17.93
2022-08-19T04:30:25.327Z,17.95
2022-08-19T04:33:54.982Z,17.93
2022-08-19T04:37:06.945Z,17.96
2022-08-19T04:40:39.894Z,17.95
2022-08-19T04:43:52.944Z,17.93
2022-08-19T04:47:11.200Z,17.94
2022-08-19T04:50:33.093Z,17.95
2022-08-19T04:57:09.936Z,18.03
2022-08-19T05:00:56.215Z,18.07
2022-08-19T05:04:09.921Z,18.07
2022-08-19T05:07:25.898Z,18.18
2022-08-19T05:10:36.931Z,18.32
2022-08-19T05:17:26.520Z,18.57
2022-08-19T05:24:20.830Z,18.74
2022-08-19T05:27:37.954Z,18.79
2022-08-19T05:30:47.121Z,18.81
2022-08-19T05:34:02.737Z,18.87
2022-08-19T05:41:14.659Z,18.98
2022-08-19T05:44:00.904Z,19.01
2022-08-19T05:46:45.035Z,19.07
2022-08-19T05:49:13.376Z,19.13
2022-08-19T05:51:46.877Z,19.15
2022-08-19T05:54:21.543Z,19.19
2022-08-19T05:56:58.656Z,19.24
2022-08-19T05:59:49.532Z,19.28
2022-08-19T06:02:24.031Z,19.35
2022-08-19T06:04:52.005Z,19.41
2022-08-19T06:07:21.196Z,19.50
2022-08-19T06:10:32.183Z,19.60
2022-08-19T06:13:06.969Z,19.76
2022-08-19T06:16:07.653Z,19.90
2022-08-19T06:18:42.025Z,20.06
2022-08-19T06:21:29.919Z,20.24
2022-08-19T06:24:24.710Z,20.43
2022-08-19T06:27:26.974Z,20.64
2022-08-19T06:30:16.337Z,20.83
2022-08-19T06:32:52.718Z,20.96
2022-08-19T06:35:31.979Z,21.05
2022-08-19T06:38:32.717Z,21.11
2022-08-19T06:41:43.615Z,21.23
2022-08-19T06:45:34.928Z,21.33
2022-08-19T06:57:15.397Z,21.63
2022-08-19T07:03:56.198Z,21.87
2022-08-19T07:07:37.451Z,21.90
2022-08-19T07:11:09.305Z,22.03
2022-08-19T08:25:09.078Z,25.62
2022-08-19T08:27:43.021Z,26.08
2022-08-19T08:30:32.507Z,26.22
2022-08-19T08:33:39.096Z,26.35
2022-08-19T08:36:17.391Z,26.47
2022-08-19T08:38:49.398Z,26.55
2022-08-19T08:41:53.876Z,26.62
2022-08-19T08:45:02.311Z,26.75
2022-08-19T08:47:38.191Z,26.83
2022-08-19T08:50:26.497Z,26.91
2022-08-19T08:52:58.564Z,27.03
2022-08-19T08:55:36.718Z,27.14
2022-08-19T08:58:14.944Z,27.28
2022-08-19T09:00:47.118Z,27.42
2022-08-19T09:03:26.787Z,27.54
2022-08-19T09:06:12.132Z,27.67
2022-08-19T09:09:14.375Z,27.82
2022-08-19T09:12:11.691Z,27.93
2022-08-19T09:14:55.623Z,28.04
2022-08-19T09:17:32.139Z,28.19
2022-08-19T09:20:09.073Z,28.31
2022-08-19T09:22:40.310Z,28.46
2022-08-19T09:25:11.336Z,28.57
2022-08-19T09:27:42.991Z,28.69
2022-08-19T09:30:19.233Z,28.81
2022-08-19T09:32:47.131Z,28.92
2022-08-19T09:35:23.196Z,29.03
2022-08-19T09:37:57.391Z,29.16
2022-08-19T09:40:32.615Z,29.29
2022-08-19T09:43:12.921Z,29.44
2022-08-19T09:45:44.936Z,29.57
2022-08-19T09:48:19.085Z,29.66
2022-08-19T09:50:53.091Z,29.75
2022-08-19T09:53:25.545Z,29.68
2022-08-19T09:55:56.784Z,29.56
2022-08-19T09:58:28.785Z,29.67
2022-08-19T10:00:59.679Z,29.82
2022-08-19T10:03:29.988Z,30.00
2022-08-19T10:06:05.697Z,30.20
2022-08-19T10:08:50.096Z,30.35
2022-08-19T10:11:28.828Z,30.51
2022-08-19T10:14:06.868Z,30.66
2022-08-19T10:16:43.084Z,30.77
2022-08-19T10:19:10.990Z,30.89
2022-08-19T10:21:40.578Z,31.01
2022-08-19T10:24:09.832Z,31.15
2022-08-19T10:26:42.645Z,31.27
2022-08-19T10:29:12.485Z,31.41
2022-08-19T10:32:01.032Z,31.51
2022-08-19T10:34:48.024Z,31.69
2022-08-19T10:37:29.100Z,31.87
2022-08-19T10:40:00.111Z,32.06
2022-08-19T10:42:29.109Z,32.24
2022-08-19T10:45:07.340Z,32.42
2022-08-19T10:47:36.673Z,32.59
2022-08-19T10:50:20.363Z,32.78
2022-08-19T10:52:50.831Z,32.96
2022-08-19T10:55:40.813Z,33.12
2022-08-19T10:58:15.322Z,33.26
2022-08-19T11:00:44.741Z,33.45
2022-08-19T11:03:13.601Z,33.65
2022-08-19T11:05:42.339Z,33.85
2022-08-19T11:08:23.447Z,34.16
2022-08-19T11:10:58.436Z,34.41
2022-08-19T11:13:27.106Z,34.61
2022-08-19T11:16:06.571Z,34.80
2022-08-19T11:18:38.336Z,35.11
2022-08-19T11:21:09.275Z,35.31
2022-08-19T11:23:37.191Z,35.51
2022-08-19T11:26:05.583Z,35.76
2022-08-19T11:28:33.714Z,35.94
2022-08-19T11:31:04.244Z,36.09
2022-08-19T11:33:33.710Z,36.32
2022-08-19T11:36:02.439Z,36.35
2022-08-19T11:38:31.825Z,36.22
2022-08-19T11:41:04.466Z,36.52
2022-08-19T11:43:40.563Z,36.81
2022-08-19T11:46:26.062Z,37.09
2022-08-19T11:48:55.448Z,37.39
2022-08-19T11:51:35.104Z,37.67
2022-08-19T11:54:07.020Z,37.89
2022-08-19T11:56:35.117Z,37.99
2022-08-19T12:33:18.216Z,40.65
2022-08-19T12:35:47.449Z,41.38
2022-08-19T12:38:15.698Z,41.37
2022-08-19T12:40:50.377Z,41.44
2022-08-19T12:43:21.264Z,41.41
2022-08-19T12:45:49.919Z,41.29
2022-08-19T12:48:33.748Z,41.57
2022-08-19T12:51:13.771Z,41.74
2022-08-19T12:53:42.317Z,41.87
2022-08-19T12:56:13.917Z,41.77
2022-08-19T12:58:48.815Z,42.00
2022-08-19T13:01:22.879Z,41.76
2022-08-19T13:04:13.506Z,41.60
2022-08-19T13:10:53.852Z,42.14
2022-08-19T13:17:32.860Z,41.77
2022-08-19T13:24:22.769Z,42.68
2022-08-19T13:26:57.384Z,42.97
2022-08-19T13:29:41.735Z,43.06
2022-08-19T13:32:39.086Z,42.47
2022-08-19T13:35:17.029Z,42.64
2022-08-19T13:37:54.678Z,43.14
2022-08-19T13:40:38.692Z,43.25
2022-08-19T13:43:55.300Z,43.27
2022-08-19T13:46:34.389Z,43.60
2022-08-19T13:49:24.207Z,43.77
2022-08-19T13:52:04.114Z,43.46
2022-08-19T13:54:36.825Z,43.40
2022-08-19T13:57:12.887Z,43.56
2022-08-19T13:59:47.511Z,43.94
2022-08-19T14:02:20.852Z,44.12
2022-08-19T14:04:48.999Z,44.28
2022-08-19T14:07:19.489Z,44.36
2022-08-19T14:09:52.375Z,44.25
2022-08-19T14:12:28.735Z,43.36
2022-08-19T14:15:14.971Z,42.44
2022-08-19T14:17:50.854Z,42.39
2022-08-19T14:20:30.308Z,42.81
2022-08-19T14:23:15.833Z,43.42
2022-08-19T14:25:52.054Z,43.83
2022-08-19T14:28:45.627Z,44.30
2022-08-19T14:31:20.061Z,44.73
2022-08-19T14:34:44.300Z,45.00
2022-08-19T14:37:45.475Z,45.16
2022-08-19T14:40:37.376Z,45.34
2022-08-19T14:43:29.403Z,45.23
2022-08-19T14:46:16.534Z,45.32
2022-08-19T14:48:45.256Z,45.28
2022-08-19T14:51:13.916Z,45.33
2022-08-19T14:53:42.528Z,45.53
2022-08-19T14:56:13.521Z,45.43
2022-08-19T14:58:43.256Z,45.23
2022-08-19T15:01:12.478Z,45.20
2022-08-19T15:03:42.110Z,45.27
2022-08-19T15:06:12.529Z,45.48
2022-08-19T15:08:44.359Z,45.41
2022-08-19T15:11:15.726Z,45.29
2022-08-19T15:13:47.507Z,45.25
2022-08-19T15:16:18.203Z,45.53
2022-08-19T15:18:50.634Z,45.28
2022-08-19T15:21:27.206Z,45.26
2022-08-19T15:23:58.435Z,45.39
2022-08-19T15:26:28.930Z,45.41
2022-08-19T15:28:56.927Z,45.65
2022-08-19T15:31:28.158Z,45.74
2022-08-19T15:33:59.285Z,45.57
2022-08-19T15:36:28.366Z,44.63
2022-08-19T15:38:57.280Z,44.43
2022-08-19T15:41:30.529Z,44.50
2022-08-19T15:44:04.465Z,44.50
2022-08-19T15:46:34.925Z,44.09
2022-08-19T15:49:03.905Z,43.55
2022-08-19T15:51:35.537Z,43.79
2022-08-19T15:54:06.576Z,43.42
2022-08-19T15:56:57.611Z,43.46
2022-08-19T15:59:40.840Z,43.55
2022-08-19T16:02:32.336Z,43.45
2022-08-19T16:05:18.277Z,43.57
2022-08-19T16:07:47.421Z,43.64
2022-08-19T16:10:25.849Z,43.51
2022-08-19T16:12:57.842Z,43.24
2022-08-19T16:15:29.001Z,42.99
2022-08-19T16:17:58.483Z,42.64
2022-08-19T16:20:27.814Z,42.47
2022-08-19T16:22:58.458Z,42.38
2022-08-19T16:25:29.841Z,42.15
2022-08-19T16:28:07.808Z,41.71
2022-08-19T16:30:38.894Z,41.29
2022-08-19T16:33:08.480Z,40.89
2022-08-19T16:35:37.155Z,40.66
2022-08-19T16:38:06.774Z,40.46
2022-08-19T16:40:35.817Z,39.97
2022-08-19T16:43:04.406Z,39.60
2022-08-19T16:45:32.305Z,39.18
2022-08-19T16:48:00.165Z,38.75
2022-08-19T16:50:46.106Z,38.30
2022-08-19T16:53:18.501Z,37.73
2022-08-19T16:55:50.969Z,37.25
2022-08-19T16:58:19.144Z,36.58
2022-08-19T17:00:48.404Z,36.02
2022-08-19T17:03:17.844Z,35.65
2022-08-19T17:05:47.701Z,35.28
2022-08-19T17:08:17.831Z,34.85
2022-08-19T17:11:07.894Z,34.37
2022-08-19T17:13:34.976Z,33.85
2022-08-19T17:16:03.334Z,33.37
2022-08-19T17:18:32.666Z,32.97
2022-08-19T17:21:01.460Z,32.58
2022-08-19T17:23:43.188Z,32.16
2022-08-19T17:26:17.057Z,31.71
2022-08-19T17:28:58.535Z,31.32
2022-08-19T17:31:29.122Z,30.98
2022-08-19T17:33:58.781Z,30.61
2022-08-19T17:36:30.102Z,30.27
2022-08-19T17:39:00.577Z,29.99
2022-08-19T17:41:30.328Z,29.79
2022-08-19T17:43:58.421Z,29.60
2022-08-19T17:46:26.555Z,29.41
2022-08-19T17:48:57.203Z,29.22
2022-08-19T17:51:45.905Z,29.04
2022-08-19T17:54:18.706Z,28.81
2022-08-19T17:56:47.631Z,28.60
2022-08-19T17:59:16.105Z,28.43
2022-08-19T18:01:54.077Z,28.24
2022-08-19T18:04:25.688Z,28.02
2022-08-19T18:06:55.550Z,27.81
2022-08-19T18:09:26.560Z,27.62
2022-08-19T18:11:57.317Z,27.46
2022-08-19T18:14:33.825Z,27.32
2022-08-19T18:17:09.307Z,27.18
2022-08-19T18:19:42.702Z,27.06
2022-08-19T18:22:27.985Z,26.96
2022-08-19T18:24:58.485Z,26.86
2022-08-19T18:27:52.453Z,26.77
2022-08-19T18:30:58.417Z,26.65
2022-08-19T18:33:53.933Z,26.54
2022-08-19T18:36:54.269Z,26.43
2022-08-19T18:40:13.736Z,26.31
2022-08-19T18:43:19.736Z,26.19
2022-08-19T18:46:38.464Z,26.05
2022-08-19T18:49:10.493Z,25.96
2022-08-19T18:51:59.025Z,25.89
2022-08-19T18:55:17.734Z,25.80
2022-08-19T18:58:28.871Z,25.70
2022-08-19T19:01:19.410Z,25.59
2022-08-19T19:03:50.947Z,25.47
2022-08-19T19:06:29.855Z,25.37
2022-08-19T19:08:58.577Z,25.27
2022-08-19T19:12:02.653Z,25.14
2022-08-19T19:14:55.150Z,24.92
2022-08-19T19:17:47.056Z,24.85
2022-08-19T19:20:44.224Z,24.80
2022-08-19T19:23:16.757Z,24.75
2022-08-19T19:26:05.307Z,24.70
2022-08-19T19:28:35.333Z,24.65
2022-08-19T19:31:08.544Z,24.58
2022-08-19T19:33:58.496Z,24.52
2022-08-19T19:36:33.563Z,24.46
2022-08-19T19:39:47.875Z,24.38
2022-08-19T19:42:49.895Z,24.28
2022-08-19T19:45:45.408Z,24.17
2022-08-19T19:48:35.548Z,24.07
2022-08-19T19:51:27.692Z,24.02
2022-08-19T19:54:30.093Z,23.96
2022-08-19T19:57:23.575Z,23.89
2022-08-19T20:00:18.490Z,23.83
2022-08-19T20:03:07.434Z,23.75
2022-08-19T20:06:11.646Z,23.72
2022-08-19T20:09:19.311Z,23.67
2022-08-19T20:12:26.216Z,23.60
2022-08-19T20:15:33.843Z,23.48
2022-08-19T20:18:21.588Z,23.39
2022-08-19T20:21:33.515Z,23.33
2022-08-19T20:24:09.203Z,23.25
2022-08-19T20:27:25.072Z,23.18
2022-08-19T20:29:54.930Z,23.10
2022-08-19T20:32:22.874Z,23.03
2022-08-19T20:34:50.832Z,22.98
2022-08-19T20:37:18.668Z,22.92
2022-08-19T20:39:46.545Z,22.85
2022-08-19T20:42:14.574Z,22.76
2022-08-19T20:44:43.008Z,22.65
2022-08-19T20:47:11.275Z,22.60
2022-08-19T20:49:39.307Z,22.57
2022-08-19T20:52:07.270Z,22.54
2022-08-19T20:54:35.206Z,22.52
2022-08-19T20:57:04.043Z,22.50
2022-08-19T20:59:31.994Z,22.48
2022-08-19T21:02:00.104Z,22.47
2022-08-19T21:04:28.079Z,22.47
2022-08-19T21:06:56.457Z,22.42
2022-08-19T21:09:24.502Z,22.37
2022-08-19T21:11:53.262Z,22.31
2022-08-19T21:14:22.813Z,22.26
2022-08-19T21:16:50.791Z,22.23
2022-08-19T21:19:23.752Z,22.20
2022-08-19T21:21:52.581Z,22.17
2022-08-19T21:24:20.846Z,22.12
2022-08-19T21:26:51.403Z,22.08
2022-08-19T21:29:19.933Z,22.04
2022-08-19T21:31:49.138Z,21.99
2022-08-19T21:34:17.135Z,21.96
2022-08-19T21:36:44.997Z,21.95
2022-08-19T21:39:12.864Z,21.93
2022-08-19T21:41:43.604Z,21.90
2022-08-19T21:44:12.217Z,21.89
2022-08-19T21:46:40.237Z,21.90
2022-08-19T21:49:08.102Z,21.90
2022-08-19T21:51:38.557Z,21.88
2022-08-19T21:54:06.546Z,21.83
2022-08-19T21:56:34.476Z,21.78
2022-08-19T21:59:02.437Z,21.72
2022-08-19T22:01:30.291Z,21.69
2022-08-19T22:03:58.441Z,21.64
2022-08-19T22:06:26.603Z,21.60
2022-08-19T22:08:55.469Z,21.51
2022-08-19T22:11:24.868Z,21.42
2022-08-19T22:13:53.906Z,21.38
2022-08-19T22:16:22.465Z,21.36
2022-08-19T22:18:51.546Z,21.32
2022-08-19T22:21:39.697Z,21.27
2022-08-19T22:24:09.232Z,21.18
2022-08-19T22:26:37.137Z,21.17
2022-08-19T22:29:05.351Z,21.12
2022-08-19T22:31:33.404Z,21.12
2022-08-19T22:34:18.891Z,21.11
2022-08-19T22:36:46.674Z,21.08
2022-08-19T22:39:14.549Z,21.09
2022-08-19T22:41:42.663Z,21.09
2022-08-19T22:44:11.373Z,21.09
2022-08-19T22:46:39.191Z,21.08
2022-08-19T22:49:07.161Z,21.08
2022-08-19T22:51:52.816Z,21.07
2022-08-19T22:54:20.830Z,21.06
2022-08-19T22:56:49.128Z,21.04
2022-08-19T22:59:17.984Z,21.00
2022-08-19T23:01:46.341Z,20.97
2022-08-19T23:04:14.504Z,20.94
2022-08-19T23:06:42.743Z,20.92
2022-08-19T23:09:11.285Z,20.92
2022-08-19T23:11:46.504Z,20.92
2022-08-19T23:14:16.216Z,20.93
2022-08-19T23:16:50.524Z,20.91
2022-08-19T23:19:20.024Z,20.87
2022-08-19T23:21:48.406Z,20.80
2022-08-19T23:24:17.414Z,20.76
2022-08-19T23:27:05.198Z,20.71
2022-08-19T23:29:45.100Z,20.67
2022-08-19T23:32:13.222Z,20.63
2022-08-19T23:34:45.209Z,20.60
2022-08-19T23:37:13.413Z,20.56
2022-08-19T23:39:41.474Z,20.46
2022-08-19T23:42:11.989Z,20.31
2022-08-19T23:44:52.326Z,20.20
2022-08-19T23:47:23.930Z,20.13
2022-08-19T23:49:53.245Z,20.11
2022-08-19T23:52:21.187Z,20.10
2022-08-19T23:54:49.157Z,20.14
2022-08-19T23:57:17.138Z,20.19
2022-08-19T23:59:45.708Z,20.25
